Time;durP1;ratioP1;P1;durP2;ratioP2;P2;SDS_P1;SDS_P2;PMS_P1;PMS_P2;Temp;Humidity;BMP_temperature;BMP_pressure;BME280_temperature;BME280_humidity;BME280_pressure;Samples;Min_cycle;Max_cycle;Signal;HPM_P1;HPM_P2
2022/05/15 00:02:43;;;;;;;7.70;3.53;;;21.30;49.10;;;;;;4950248;28;20455;-63
2022/05/15 00:05:09;;;;;;;8.85;3.55;;;21.30;49.10;;;;;;4950804;28;20074;-62
2022/05/15 00:07:35;;;;;;;6.75;3.30;;;21.30;49.00;;;;;;4948834;28;20468;-62
2022/05/15 00:10:02;;;;;;;8.35;3.67;;;21.30;49.00;;;;;;4949929;28;20039;-62
2022/05/15 00:12:27;;;;;;;7.95;3.72;;;21.30;49.10;;;;;;4951110;29;20101;-62
2022/05/15 00:14:53;;;;;;;7.93;3.80;;;21.20;48.90;;;;;;4950267;28;20047;-63
2022/05/15 00:17:19;;;;;;;10.25;3.90;;;21.30;48.90;;;;;;4949861;28;20461;-62
2022/05/15 00:19:44;;;;;;;10.57;4.35;;;21.30;48.90;;;;;;4950038;28;20043;-63
2022/05/15 00:22:10;;;;;;;8.20;3.47;;;21.20;48.90;;;;;;4950621;29;20039;-63
2022/05/15 00:24:37;;;;;;;6.82;2.80;;;21.30;48.90;;;;;;4949103;29;21039;-63
2022/05/15 00:27:03;;;;;;;8.43;3.72;;;21.30;48.90;;;;;;4950255;29;20130;-63
2022/05/15 00:29:29;;;;;;;9.63;3.83;;;21.20;48.80;;;;;;4948299;29;20035;-63
2022/05/15 00:31:55;;;;;;;8.27;3.60;;;21.20;48.80;;;;;;4950505;28;20051;-62
2022/05/15 00:34:21;;;;;;;8.45;3.55;;;21.30;48.90;;;;;;4950330;28;20102;-62
2022/05/15 00:36:47;;;;;;;7.90;3.33;;;21.20;48.80;;;;;;4949915;29;20474;-62
2022/05/15 00:39:12;;;;;;;6.20;3.65;;;21.20;48.80;;;;;;4949760;28;20086;-62
2022/05/15 00:41:39;;;;;;;8.98;3.80;;;21.20;48.80;;;;;;4949407;28;20055;-63
2022/05/15 00:44:06;;;;;;;7.53;3.28;;;21.20;48.80;;;;;;4949203;28;20151;-62
2022/05/15 00:46:41;;;;;;;9.65;3.50;;;21.20;48.80;;;;;;4949249;29;20047;-63
2022/05/15 00:49:10;;;;;;;8.40;3.30;;;21.20;48.80;;;;;;4949307;29;20039;-63
2022/05/15 00:51:47;;;;;;;9.00;3.88;;;21.20;48.80;;;;;;4950074;28;20051;-62
2022/05/15 00:54:49;;;;;;;7.45;3.20;;;21.20;48.70;;;;;;4949558;29;20419;-64
2022/05/15 00:57:29;;;;;;;7.28;3.10;;;21.20;48.80;;;;;;4944023;28;20403;-63
2022/05/15 01:00:01;;;;;;;9.80;3.60;;;21.20;48.70;;;;;;4949412;29;20051;-62
2022/05/15 01:02:31;;;;;;;7.30;3.20;;;21.20;48.70;;;;;;4949608;29;20046;-64
2022/05/15 01:04:56;;;;;;;5.57;3.30;;;21.20;48.70;;;;;;4950408;29;20035;-63
2022/05/15 01:07:22;;;;;;;6.53;3.13;;;21.20;48.70;;;;;;4946456;29;20075;-63
2022/05/15 01:09:50;;;;;;;7.55;3.22;;;21.20;48.70;;;;;;4948765;28;20043;-63
2022/05/15 01:12:16;;;;;;;5.82;2.80;;;21.20;48.70;;;;;;4947620;28;20047;-63
2022/05/15 01:14:45;;;;;;;9.48;3.33;;;21.20;48.70;;;;;;4947519;29;20439;-64
2022/05/15 01:17:10;;;;;;;9.57;3.65;;;21.20;48.60;;;;;;4947283;29;20054;-62
2022/05/15 01:19:38;;;;;;;8.52;3.53;;;21.20;48.60;;;;;;4947670;28;20589;-63
2022/05/15 01:22:05;;;;;;;8.85;3.53;;;21.20;48.50;;;;;;4949822;29;20095;-63
2022/05/15 01:24:31;;;;;;;7.10;3.15;;;21.10;48.50;;;;;;4949343;28;20051;-62
2022/05/15 01:27:03;;;;;;;6.65;3.42;;;21.20;48.50;;;;;;4963073;28;20101;-63
2022/05/15 01:29:42;;;;;;;8.98;3.72;;;21.20;48.40;;;;;;4949224;28;20696;-63
2022/05/15 01:32:08;;;;;;;6.00;2.92;;;21.10;48.40;;;;;;4948641;29;20039;-63
2022/05/15 01:34:34;;;;;;;6.38;3.35;;;21.10;48.40;;;;;;4948053;28;20055;-63
2022/05/15 01:36:59;;;;;;;6.75;3.22;;;21.20;48.40;;;;;;4948978;28;20058;-63
2022/05/15 01:39:29;;;;;;;7.40;3.40;;;21.20;48.40;;;;;;4947904;29;20062;-62
2022/05/15 01:41:55;;;;;;;7.47;3.23;;;21.10;48.30;;;;;;4948339;29;20169;-62
2022/05/15 01:44:21;;;;;;;6.60;3.20;;;21.10;48.30;;;;;;4931380;29;20163;-64
2022/05/15 01:46:48;;;;;;;6.35;2.75;;;21.10;48.30;;;;;;4948701;29;20071;-62
2022/05/15 01:49:15;;;;;;;6.95;3.13;;;21.10;48.20;;;;;;4946777;29;20043;-63
2022/05/15 01:51:42;;;;;;;6.43;2.95;;;21.10;48.20;;;;;;4947475;29;20047;-61
2022/05/15 01:54:08;;;;;;;6.32;3.13;;;21.10;48.20;;;;;;4948267;29;20043;-62
2022/05/15 01:56:36;;;;;;;5.35;3.00;;;21.10;48.20;;;;;;4946786;28;20039;-62
2022/05/15 01:59:03;;;;;;;8.13;4.00;;;21.10;48.30;;;;;;4947759;29;20501;-63
2022/05/15 02:01:29;;;;;;;7.47;3.58;;;21.10;48.10;;;;;;4942890;28;20942;-62
2022/05/15 02:03:54;;;;;;;7.88;3.40;;;21.10;48.10;;;;;;4943557;28;20113;-62
2022/05/15 02:06:20;;;;;;;6.38;3.00;;;21.10;48.10;;;;;;4944400;28;20039;-64
2022/05/15 02:08:45;;;;;;;7.10;3.28;;;21.10;48.10;;;;;;4944897;28;20066;-62
2022/05/15 02:11:11;;;;;;;6.85;3.20;;;21.10;48.00;;;;;;4947933;28;20051;-63
2022/05/15 02:13:37;;;;;;;6.88;3.33;;;21.10;48.10;;;;;;4947885;28;20046;-61
2022/05/15 02:16:03;;;;;;;7.95;3.58;;;21.10;48.00;;;;;;4947861;28;20035;-63
2022/05/15 02:18:28;;;;;;;6.43;3.10;;;21.10;47.90;;;;;;4946771;28;20062;-64
2022/05/15 02:20:54;;;;;;;8.80;2.83;;;21.10;48.00;;;;;;4945663;29;20384;-63
2022/05/15 02:23:20;;;;;;;9.52;3.67;;;21.10;48.00;;;;;;4948579;28;20109;-62
2022/05/15 02:25:46;;;;;;;7.68;3.42;;;21.10;48.00;;;;;;4947451;29;20048;-62
2022/05/15 02:28:12;;;;;;;8.25;3.20;;;21.10;48.10;;;;;;4948827;28;20039;-63
2022/05/15 02:30:38;;;;;;;8.63;3.63;;;21.10;48.10;;;;;;4946902;29;20039;-63
2022/05/15 02:33:03;;;;;;;6.03;2.80;;;21.10;48.00;;;;;;4948368;29;20051;-65
2022/05/15 02:35:29;;;;;;;6.82;3.30;;;21.10;48.10;;;;;;4947106;29;20466;-64
2022/05/15 02:37:54;;;;;;;6.20;2.90;;;21.10;48.00;;;;;;4946440;28;20054;-65
2022/05/15 02:40:22;;;;;;;7.55;2.97;;;21.10;48.70;;;;;;4947627;28;20051;-61
2022/05/15 02:42:48;;;;;;;8.23;3.40;;;21.10;47.90;;;;;;4947745;29;20039;-62
2022/05/15 02:45:14;;;;;;;6.70;3.47;;;21.10;48.00;;;;;;4947545;29;20086;-62
2022/05/15 02:47:41;;;;;;;7.55;3.35;;;21.10;47.90;;;;;;4960465;28;20047;-62
2022/05/15 02:52:53;;;;;;;7.32;3.47;;;21.10;47.90;;;;;;4948111;29;20138;-63
2022/05/15 02:55:21;;;;;;;6.70;3.65;;;21.10;47.90;;;;;;4947929;29;20050;-62
2022/05/15 02:57:47;;;;;;;7.97;3.08;;;21.10;48.60;;;;;;4946734;29;20047;-61
2022/05/15 03:00:14;;;;;;;6.15;3.08;;;21.10;47.90;;;;;;4947609;28;20035;-62
2022/05/15 03:02:40;;;;;;;5.43;2.70;;;21.10;47.90;;;;;;4947579;29;20051;-62
2022/05/15 03:05:10;;;;;;;7.60;3.38;;;21.10;47.90;;;;;;4947505;28;20468;-63
2022/05/15 03:07:36;;;;;;;5.65;3.55;;;21.10;47.90;;;;;;4946457;28;20051;-64
2022/05/15 03:10:03;;;;;;;6.78;2.90;;;21.10;47.90;;;;;;4946960;29;20043;-62
2022/05/15 03:12:29;;;;;;;7.80;3.45;;;21.00;47.80;;;;;;4946787;29;20598;-63
2022/05/15 03:14:55;;;;;;;7.95;3.35;;;21.00;47.80;;;;;;4948083;28;20043;-62
2022/05/15 03:17:21;;;;;;;7.22;2.95;;;21.00;47.80;;;;;;4947913;28;20043;-62
2022/05/15 03:19:46;;;;;;;7.60;3.28;;;21.00;47.80;;;;;;4950460;28;20039;-63
2022/05/15 03:22:12;;;;;;;8.65;3.63;;;21.10;47.70;;;;;;4949769;29;20053;-63
2022/05/15 03:24:38;;;;;;;7.35;3.10;;;21.00;47.70;;;;;;4951710;28;20078;-63
2022/05/15 03:27:04;;;;;;;7.90;2.92;;;21.00;47.70;;;;;;4951257;28;20491;-65
2022/05/15 03:29:30;;;;;;;6.32;3.05;;;21.00;47.80;;;;;;4951026;28;20043;-62
2022/05/15 03:31:56;;;;;;;7.43;3.17;;;21.00;47.70;;;;;;4952078;28;20055;-62
2022/05/15 03:34:22;;;;;;;8.40;3.22;;;21.00;47.70;;;;;;4949584;29;20373;-61
2022/05/15 03:36:51;;;;;;;8.10;3.42;;;21.00;48.40;;;;;;4950461;29;20058;-64
2022/05/15 03:39:19;;;;;;;8.32;3.25;;;21.00;47.70;;;;;;4950168;29;20106;-63
2022/05/15 03:41:45;;;;;;;6.57;2.90;;;21.10;47.70;;;;;;4951338;29;20567;-65
2022/05/15 03:44:11;;;;;;;5.82;2.88;;;21.00;47.60;;;;;;4950652;28;20039;-63
2022/05/15 03:46:39;;;;;;;6.57;2.97;;;21.00;47.70;;;;;;4951066;28;20058;-62
2022/05/15 03:49:05;;;;;;;6.93;2.92;;;21.00;47.60;;;;;;4950871;29;20042;-64
2022/05/15 03:51:31;;;;;;;6.38;2.88;;;21.00;47.60;;;;;;4951304;28;20397;-63
2022/05/15 03:53:57;;;;;;;7.25;2.92;;;21.00;47.60;;;;;;4951331;28;20369;-63
2022/05/15 03:56:49;;;;;;;6.68;3.78;;;21.00;47.60;;;;;;4956515;28;20086;-62
2022/05/15 03:59:09;;;;;;;5.80;2.88;;;21.00;47.60;;;;;;4950903;28;20046;-62
2022/05/15 04:01:35;;;;;;;7.45;3.20;;;21.00;47.60;;;;;;4943963;29;20150;-65
2022/05/15 04:04:00;;;;;;;7.07;3.08;;;21.00;47.60;;;;;;4947626;28;20531;-61
2022/05/15 04:06:26;;;;;;;7.72;3.22;;;21.00;47.60;;;;;;4947867;29;20400;-61
2022/05/15 04:08:52;;;;;;;7.22;2.92;;;21.00;47.60;;;;;;4950131;28;20079;-61
2022/05/15 04:11:18;;;;;;;5.82;2.80;;;21.00;47.50;;;;;;4940753;29;20439;-61
2022/05/15 04:13:44;;;;;;;6.18;3.03;;;21.00;47.60;;;;;;4950697;28;20154;-62
2022/05/15 04:16:10;;;;;;;6.82;2.95;;;21.00;47.60;;;;;;4950058;28;20039;-65
2022/05/15 04:18:35;;;;;;;8.13;3.05;;;21.00;47.60;;;;;;4950023;28;20141;-62
2022/05/15 04:21:01;;;;;;;8.13;3.33;;;21.00;47.50;;;;;;4949971;28;20899;-61
2022/05/15 04:23:27;;;;;;;4.90;2.80;;;21.00;47.60;;;;;;4950473;29;20047;-62
2022/05/15 04:25:53;;;;;;;7.32;2.95;;;21.00;47.60;;;;;;4950316;28;20043;-62
2022/05/15 04:28:18;;;;;;;7.03;2.92;;;21.00;47.60;;;;;;4950106;29;20130;-62
2022/05/15 04:30:44;;;;;;;6.03;2.75;;;21.00;47.60;;;;;;4949489;28;20078;-62
2022/05/15 04:33:09;;;;;;;6.15;3.03;;;21.00;47.60;;;;;;4949740;28;20150;-63
2022/05/15 04:35:35;;;;;;;4.95;2.53;;;21.00;47.60;;;;;;4949883;29;20047;-62
2022/05/15 04:38:00;;;;;;;6.90;3.08;;;21.00;47.60;;;;;;4950363;29;20411;-63
2022/05/15 04:40:26;;;;;;;5.25;2.63;;;21.00;47.60;;;;;;4953695;28;20537;-64
2022/05/15 04:42:52;;;;;;;5.93;3.17;;;21.00;48.30;;;;;;4949956;28;20083;-62
2022/05/15 04:45:18;;;;;;;8.63;2.97;;;20.90;47.50;;;;;;4949728;28;20035;-61
2022/05/15 04:47:46;;;;;;;7.07;3.63;;;21.00;47.50;;;;;;4950456;28;20047;-63
2022/05/15 04:50:14;;;;;;;7.72;3.22;;;21.00;47.60;;;;;;4949316;29;20031;-63
2022/05/15 04:52:39;;;;;;;6.90;3.45;;;20.90;47.50;;;;;;4950428;29;20136;-64
2022/05/15 04:55:05;;;;;;;6.07;3.20;;;20.90;47.60;;;;;;4949916;28;20072;-62
2022/05/15 04:57:31;;;;;;;7.00;2.90;;;21.00;47.60;;;;;;4948513;28;20082;-62
2022/05/15 04:59:57;;;;;;;5.03;2.65;;;20.90;47.60;;;;;;4949528;28;20051;-64
2022/05/15 05:02:22;;;;;;;7.00;2.70;;;21.00;47.70;;;;;;4950471;28;20470;-63
2022/05/15 05:04:48;;;;;;;5.95;2.63;;;21.00;47.70;;;;;;4948865;28;21043;-61
2022/05/15 05:07:13;;;;;;;6.25;3.05;;;20.90;47.70;;;;;;4948720;28;20700;-62
2022/05/15 05:09:39;;;;;;;5.57;3.20;;;20.90;47.60;;;;;;4949820;28;20050;-62
2022/05/15 05:12:05;;;;;;;4.35;2.58;;;21.00;47.70;;;;;;4949733;28;20054;-62
2022/05/15 05:14:31;;;;;;;5.93;3.17;;;21.00;47.70;;;;;;4948854;28;20087;-62
2022/05/15 05:16:56;;;;;;;6.57;2.80;;;20.90;47.60;;;;;;4949697;28;20784;-61
2022/05/15 05:19:22;;;;;;;5.40;2.78;;;20.90;47.60;;;;;;4948992;28;20130;-62
2022/05/15 05:21:47;;;;;;;7.18;3.20;;;20.90;47.60;;;;;;4949883;28;20225;-62
2022/05/15 05:24:13;;;;;;;7.55;2.80;;;20.90;47.60;;;;;;4949467;28;20094;-63
2022/05/15 05:26:39;;;;;;;9.38;2.92;;;20.90;47.60;;;;;;4946914;28;20054;-62
2022/05/15 05:29:04;;;;;;;6.10;3.00;;;20.90;47.60;;;;;;4949589;28;20126;-64
2022/05/15 05:31:30;;;;;;;6.55;2.78;;;20.90;47.60;;;;;;4947949;29;20761;-63
2022/05/15 05:33:56;;;;;;;6.75;3.53;;;20.90;47.60;;;;;;4948877;28;20177;-64
2022/05/15 05:36:22;;;;;;;6.68;2.92;;;20.90;47.60;;;;;;4948368;28;20152;-64
2022/05/15 05:38:47;;;;;;;4.53;2.70;;;20.90;47.70;;;;;;4963596;28;20163;-63
2022/05/15 05:41:13;;;;;;;5.78;2.50;;;20.90;47.60;;;;;;4948469;28;20052;-63
2022/05/15 05:43:39;;;;;;;4.47;2.45;;;20.90;47.60;;;;;;4949511;28;20051;-62
2022/05/15 05:46:05;;;;;;;6.55;2.80;;;20.90;47.60;;;;;;4949501;28;20853;-62
2022/05/15 05:48:31;;;;;;;7.00;2.63;;;20.90;47.70;;;;;;4948518;28;20051;-62
2022/05/15 05:50:57;;;;;;;4.95;2.75;;;20.90;47.60;;;;;;4949250;28;20050;-62
2022/05/15 05:53:23;;;;;;;6.45;2.85;;;20.90;47.70;;;;;;4947568;28;20043;-63
2022/05/15 05:55:48;;;;;;;6.10;2.80;;;20.90;47.70;;;;;;4949132;28;20079;-62
2022/05/15 05:58:14;;;;;;;5.82;2.92;;;20.90;47.70;;;;;;4947973;29;20053;-62
2022/05/15 06:00:39;;;;;;;7.68;2.78;;;20.90;47.70;;;;;;4949178;28;20047;-62
2022/05/15 06:05:51;;;;;;;5.75;2.92;;;20.90;47.70;;;;;;4948797;29;20069;-61
2022/05/15 06:08:17;;;;;;;5.72;2.78;;;20.90;47.80;;;;;;4947149;29;20610;-65
2022/05/15 06:10:43;;;;;;;6.22;2.60;;;20.90;47.70;;;;;;4949049;28;20419;-64
2022/05/15 06:13:10;;;;;;;5.35;2.72;;;20.90;47.70;;;;;;4963289;28;20106;-62
2022/05/15 06:15:36;;;;;;;6.07;2.53;;;20.90;47.80;;;;;;4948526;28;20047;-62
2022/05/15 06:18:03;;;;;;;5.78;2.53;;;20.90;47.80;;;;;;4948298;29;20047;-62
2022/05/15 06:20:29;;;;;;;5.38;2.42;;;20.90;47.80;;;;;;4948217;29;20073;-64
2022/05/15 06:22:55;;;;;;;6.28;2.60;;;20.90;47.80;;;;;;4946863;28;20049;-61
2022/05/15 06:25:21;;;;;;;4.60;2.40;;;20.90;47.80;;;;;;4948548;28;20043;-61
2022/05/15 06:27:46;;;;;;;4.93;2.72;;;20.90;47.80;;;;;;4947451;29;20133;-64
2022/05/15 06:30:13;;;;;;;4.70;2.30;;;20.90;47.80;;;;;;4948182;28;20079;-63
2022/05/15 06:32:39;;;;;;;5.93;2.83;;;20.90;47.80;;;;;;4948157;29;20049;-63
2022/05/15 06:35:06;;;;;;;6.38;2.58;;;20.90;47.90;;;;;;4946752;28;20039;-61
2022/05/15 06:37:32;;;;;;;6.78;2.72;;;20.90;47.80;;;;;;4948423;28;20043;-64
2022/05/15 06:39:57;;;;;;;3.17;1.98;;;20.90;47.80;;;;;;4947212;29;20050;-63
2022/05/15 06:42:23;;;;;;;4.78;2.42;;;20.90;48.00;;;;;;4940793;29;20039;-63
2022/05/15 06:44:50;;;;;;;7.05;2.80;;;20.90;48.00;;;;;;4945645;28;20053;-62
2022/05/15 06:47:15;;;;;;;5.07;2.15;;;20.90;48.50;;;;;;4946065;28;20415;-62
2022/05/15 06:49:41;;;;;;;5.30;2.30;;;20.90;48.60;;;;;;4946011;29;20146;-62
2022/05/15 06:52:07;;;;;;;5.40;2.35;;;20.90;48.70;;;;;;4947895;29;20039;-63
2022/05/15 06:54:33;;;;;;;6.47;2.75;;;21.00;48.80;;;;;;4956818;28;20933;-64
2022/05/15 06:59:42;;;;;;;5.13;2.33;;;21.00;48.80;;;;;;4953033;29;20523;-63
2022/05/15 07:02:08;;;;;;;5.32;2.67;;;21.00;48.70;;;;;;4953877;28;20047;-64
2022/05/15 07:04:33;;;;;;;6.13;2.55;;;21.00;48.80;;;;;;4951959;28;20522;-62
2022/05/15 07:06:59;;;;;;;4.55;2.38;;;21.00;48.80;;;;;;4947606;28;20058;-63
2022/05/15 07:09:26;;;;;;;6.15;2.53;;;21.00;48.80;;;;;;4952357;28;20399;-64
2022/05/15 07:11:52;;;;;;;6.63;2.88;;;21.00;48.80;;;;;;4953568;28;20039;-66
2022/05/15 07:14:17;;;;;;;7.82;2.75;;;21.10;48.90;;;;;;4951476;28;20039;-63
2022/05/15 07:16:43;;;;;;;6.18;2.40;;;21.10;49.00;;;;;;4965361;28;20135;-63
2022/05/15 07:19:08;;;;;;;8.30;2.83;;;21.10;49.10;;;;;;4955811;28;20039;-67
2022/05/15 07:21:34;;;;;;;6.43;2.75;;;21.10;49.20;;;;;;4950818;28;20499;-68
2022/05/15 07:23:59;;;;;;;4.95;2.50;;;21.10;49.20;;;;;;4950771;28;20559;-67
2022/05/15 07:26:25;;;;;;;5.00;2.63;;;21.10;49.30;;;;;;4951588;29;20786;-66
2022/05/15 07:28:51;;;;;;;6.75;2.55;;;21.10;49.20;;;;;;4950755;29;20049;-62
2022/05/15 07:31:20;;;;;;;8.55;2.80;;;21.10;49.20;;;;;;4950280;28;20109;-63
2022/05/15 07:33:46;;;;;;;6.45;2.85;;;21.10;49.20;;;;;;4948519;29;20040;-63
2022/05/15 07:36:12;;;;;;;6.25;2.78;;;21.10;49.30;;;;;;4951235;28;20061;-63
2022/05/15 07:38:38;;;;;;;7.13;2.40;;;21.10;49.30;;;;;;4950953;28;20797;-63
2022/05/15 07:41:04;;;;;;;9.98;2.80;;;21.10;49.40;;;;;;4950286;28;20463;-63
2022/05/15 07:43:30;;;;;;;5.55;2.38;;;21.10;49.40;;;;;;4951246;28;20086;-65
2022/05/15 07:45:55;;;;;;;4.43;2.45;;;21.10;49.50;;;;;;4951144;28;20039;-64
2022/05/15 07:48:21;;;;;;;7.72;2.75;;;21.10;49.50;;;;;;4950108;28;20065;-62
2022/05/15 07:50:48;;;;;;;7.25;2.90;;;21.20;49.60;;;;;;4952524;28;20041;-63
2022/05/15 07:53:16;;;;;;;7.95;2.55;;;21.20;49.60;;;;;;4953665;28;20070;-63
2022/05/15 07:55:45;;;;;;;5.75;2.72;;;21.20;49.50;;;;;;4969262;28;20035;-62
2022/05/15 07:58:10;;;;;;;6.00;2.53;;;21.20;49.60;;;;;;4952761;28;20070;-62
2022/05/15 08:00:36;;;;;;;6.13;2.38;;;21.20;49.60;;;;;;4952779;28;20984;-62
2022/05/15 08:03:09;;;;;;;7.78;2.72;;;21.20;49.60;;;;;;4953236;29;20106;-63
2022/05/15 08:08:21;;;;;;;6.32;2.47;;;21.20;49.60;;;;;;4950174;29;20047;-61
2022/05/15 08:10:47;;;;;;;5.88;2.42;;;21.20;49.70;;;;;;4949882;28;20035;-59
2022/05/15 08:13:15;;;;;;;6.45;2.65;;;21.20;49.60;;;;;;4950202;28;20043;-62
2022/05/15 08:15:42;;;;;;;4.63;2.33;;;21.20;49.50;;;;;;4948009;28;20038;-61
2022/05/15 08:23:41;;;;;;;7.90;2.85;;;21.20;49.40;;;;;;4948231;29;20148;-65
2022/05/15 08:26:07;;;;;;;12.27;4.25;;;21.20;49.50;;;;;;4949074;29;20090;-60
2022/05/15 08:28:34;;;;;;;10.32;3.95;;;21.20;49.60;;;;;;4948773;28;20070;-62
2022/05/15 08:31:00;;;;;;;9.73;3.28;;;21.20;49.80;;;;;;4947991;29;20035;-59
2022/05/15 08:33:26;;;;;;;12.35;4.45;;;21.20;49.90;;;;;;4948122;28;20102;-62
2022/05/15 08:35:53;;;;;;;14.48;4.28;;;21.20;50.00;;;;;;4946752;28;20062;-61
2022/05/15 08:38:19;;;;;;;9.50;4.15;;;21.20;50.30;;;;;;4947228;29;20160;-61
2022/05/15 08:41:03;;;;;;;13.27;4.05;;;21.20;50.40;;;;;;4961213;28;20081;-61
2022/05/15 08:43:43;;;;;;;12.30;3.88;;;21.20;50.40;;;;;;4950322;29;20047;-61
2022/05/15 08:46:46;;;;;;;10.07;4.00;;;21.20;50.40;;;;;;4949604;29;20395;-61
2022/05/15 08:49:26;;;;;;;10.40;3.38;;;21.20;50.40;;;;;;4938373;29;20051;-60
2022/05/15 08:52:13;;;;;;;8.48;3.78;;;21.20;50.30;;;;;;4949584;29;20102;-61
2022/05/15 08:54:51;;;;;;;9.88;3.70;;;21.20;50.20;;;;;;4947285;29;20419;-61
2022/05/15 08:57:20;;;;;;;13.32;3.80;;;21.20;50.20;;;;;;4948320;29;20051;-60
2022/05/15 08:59:55;;;;;;;12.65;4.05;;;21.20;50.10;;;;;;4948337;29;20051;-63
2022/05/15 09:02:23;;;;;;;10.43;3.60;;;21.20;50.00;;;;;;4948975;29;20055;-60
2022/05/15 09:04:50;;;;;;;9.88;3.70;;;21.20;49.80;;;;;;4948962;29;20619;-61
2022/05/15 09:07:48;;;;;;;9.10;3.40;;;21.20;49.50;;;;;;4945688;29;20215;-61
2022/05/15 09:10:27;;;;;;;9.75;3.28;;;21.20;49.40;;;;;;4947879;29;20054;-60
2022/05/15 09:13:26;;;;;;;10.48;3.88;;;21.20;49.30;;;;;;4949651;28;20043;-60
2022/05/15 09:15:58;;;;;;;14.05;4.05;;;21.20;49.10;;;;;;4949201;28;20098;-61
2022/05/15 09:18:24;;;;;;;9.70;3.28;;;21.20;49.10;;;;;;4949295;29;20066;-61
2022/05/15 09:20:53;;;;;;;10.30;3.70;;;21.20;48.90;;;;;;4949361;29;20035;-60
2022/05/15 09:23:40;;;;;;;9.88;3.60;;;21.20;48.90;;;;;;4948749;28;20043;-63
2022/05/15 09:26:06;;;;;;;9.95;3.80;;;21.10;48.90;;;;;;4948407;29;20046;-62
2022/05/15 09:28:45;;;;;;;9.10;3.58;;;21.10;48.80;;;;;;4949165;28;20138;-60
2022/05/15 09:31:28;;;;;;;8.65;3.38;;;21.10;48.70;;;;;;4947964;28;20054;-62
2022/05/15 09:34:01;;;;;;;9.63;4.05;;;21.10;48.70;;;;;;4948056;29;20051;-61
2022/05/15 09:36:35;;;;;;;10.73;3.45;;;21.20;48.80;;;;;;4947726;28;20055;-61
2022/05/15 09:39:20;;;;;;;12.02;3.58;;;21.10;48.60;;;;;;4948385;29;20464;-61
2022/05/15 09:45:07;;;;;;;9.85;3.53;;;21.20;48.80;;;;;;4947650;28;20049;-60
2022/05/15 09:47:36;;;;;;;8.88;3.25;;;21.10;49.50;;;;;;4947781;29;20043;-61
2022/05/15 09:50:02;;;;;;;11.43;3.92;;;21.20;48.90;;;;;;4947943;28;20043;-59
2022/05/15 09:52:41;;;;;;;9.60;3.20;;;21.20;48.80;;;;;;4945163;28;20070;-60
2022/05/15 09:55:25;;;;;;;10.35;3.83;;;21.20;48.80;;;;;;4948388;29;20109;-61
2022/05/15 09:58:04;;;;;;;7.47;2.97;;;21.20;48.80;;;;;;4947603;28;20074;-61
2022/05/15 10:00:33;;;;;;;11.57;3.63;;;21.20;48.90;;;;;;4948303;28;20047;-61
2022/05/15 10:03:14;;;;;;;9.13;3.45;;;21.20;48.90;;;;;;4947238;28;20055;-60
2022/05/15 10:05:40;;;;;;;9.27;3.20;;;21.20;48.90;;;;;;4947157;29;20051;-60
2022/05/15 10:08:10;;;;;;;7.95;3.30;;;21.20;48.90;;;;;;4946972;28;20046;-60
2022/05/15 10:10:42;;;;;;;;;;;21.20;48.90;;;;;;4963719;28;20058;-60
2022/05/15 10:13:26;;;;;;;10.57;3.22;;;21.20;48.80;;;;;;4946343;28;19922;-60
2022/05/15 10:15:57;;;;;;;9.82;2.88;;;21.20;48.90;;;;;;4948091;28;20046;-61
2022/05/15 10:18:27;;;;;;;10.52;3.78;;;21.20;48.70;;;;;;4947587;29;20490;-61
2022/05/15 10:20:54;;;;;;;9.63;3.80;;;21.20;48.70;;;;;;4948201;29;20098;-60
2022/05/15 10:23:37;;;;;;;9.40;3.20;;;21.20;48.70;;;;;;4947009;29;20370;-60
2022/05/15 10:26:18;;;;;;;11.25;3.72;;;21.20;48.60;;;;;;4962970;28;20046;-64
2022/05/15 10:29:04;;;;;;;11.85;3.97;;;21.20;48.50;;;;;;4947051;28;20142;-62
2022/05/15 10:32:04;;;;;;;9.40;3.80;;;21.20;48.40;;;;;;4948043;29;20053;-61
2022/05/15 10:34:31;;;;;;;11.23;3.30;;;21.20;48.20;;;;;;4945712;28;20133;-62
2022/05/15 10:37:11;;;;;;;9.70;3.42;;;21.20;48.10;;;;;;4948344;28;20431;-59
2022/05/15 10:40:07;;;;;;;11.10;3.78;;;21.30;47.90;;;;;;4946671;29;20063;-61
2022/05/15 10:43:02;;;;;;;11.38;4.30;;;21.30;47.80;;;;;;4946011;29;20052;-61
2022/05/15 10:45:40;;;;;;;11.05;3.38;;;21.30;47.60;;;;;;4944020;29;20122;-61
2022/05/15 10:48:17;;;;;;;15.27;4.13;;;21.30;47.50;;;;;;4944879;29;20070;-60
2022/05/15 10:50:59;;;;;;;9.73;3.72;;;21.30;47.40;;;;;;4948152;28;20181;-61
2022/05/15 10:59:37;;;;;;;9.77;4.00;;;21.30;46.40;;;;;;4947304;29;20069;-60
2022/05/15 11:02:30;;;;;;;10.63;3.55;;;21.30;46.40;;;;;;4947008;29;20054;-61
2022/05/15 11:05:36;;;;;;;11.60;3.80;;;21.30;46.30;;;;;;4946167;28;20320;-62
2022/05/15 11:08:26;;;;;;;10.57;3.55;;;21.40;46.70;;;;;;4910667;29;20047;-60
2022/05/15 11:11:09;;;;;;;10.35;3.63;;;21.40;46.70;;;;;;4945675;28;20547;-60
2022/05/15 11:13:39;;;;;;;13.35;4.05;;;21.40;47.40;;;;;;4946413;28;20055;-60
2022/05/15 11:16:21;;;;;;;11.60;3.85;;;21.40;46.90;;;;;;4946492;28;20110;-60
2022/05/15 11:18:49;;;;;;;10.48;3.55;;;21.40;46.60;;;;;;4945292;28;20102;-60
2022/05/15 11:21:30;;;;;;;11.82;3.65;;;21.40;46.70;;;;;;4946764;28;20067;-60
2022/05/15 11:24:11;;;;;;;11.32;4.03;;;21.40;46.60;;;;;;4945748;29;20040;-60
2022/05/15 11:26:51;;;;;;;13.35;4.45;;;21.40;46.80;;;;;;4961403;28;20063;-61
2022/05/15 11:29:19;;;;;;;14.70;4.13;;;21.50;46.50;;;;;;4947036;29;20062;-61
2022/05/15 11:31:50;;;;;;;11.63;3.90;;;21.50;46.50;;;;;;4947626;29;20050;-59
2022/05/15 11:34:16;;;;;;;10.10;3.67;;;21.50;46.30;;;;;;4946485;28;20054;-60
2022/05/15 11:36:45;;;;;;;13.10;4.70;;;21.50;46.30;;;;;;4947464;29;20051;-63
2022/05/15 11:39:13;;;;;;;7.93;3.45;;;21.50;46.40;;;;;;4945414;28;20137;-60
2022/05/15 11:42:08;;;;;;;10.00;3.72;;;21.50;46.10;;;;;;4950830;29;20521;-61
2022/05/15 11:44:46;;;;;;;9.82;3.65;;;21.50;45.90;;;;;;4945203;29;20055;-60
2022/05/15 11:47:14;;;;;;;11.15;3.40;;;21.50;46.10;;;;;;4947159;29;20042;-60
2022/05/15 11:49:57;;;;;;;9.75;3.67;;;21.50;46.20;;;;;;4950497;28;20052;-60
2022/05/15 11:52:42;;;;;;;12.15;4.35;;;21.50;46.00;;;;;;4947770;29;20049;-62
2022/05/15 11:55:37;;;;;;;10.68;3.95;;;21.60;45.90;;;;;;4948423;28;20038;-61
2022/05/15 11:58:30;;;;;;;11.63;3.88;;;21.60;45.80;;;;;;4947619;28;20067;-64
2022/05/15 12:01:12;;;;;;;12.25;3.60;;;21.60;45.80;;;;;;4946305;28;20186;-64
2022/05/15 12:03:45;;;;;;;11.68;3.55;;;21.60;46.00;;;;;;4950588;28;20047;-62
2022/05/15 12:06:23;;;;;;;11.60;3.67;;;21.70;46.00;;;;;;4964749;28;20105;-63
2022/05/15 12:09:24;;;;;;;11.55;3.92;;;21.70;45.90;;;;;;4948051;29;20049;-61
2022/05/15 12:11:51;;;;;;;12.02;3.55;;;21.70;45.60;;;;;;4948091;29;20049;-61
2022/05/15 12:14:25;;;;;;;10.63;3.65;;;21.70;45.60;;;;;;4944990;29;20047;-60
2022/05/15 12:17:04;;;;;;;11.65;3.83;;;21.70;45.30;;;;;;4950115;28;20039;-60
2022/05/15 12:19:36;;;;;;;11.43;3.92;;;21.80;45.10;;;;;;4947019;29;20035;-60
2022/05/15 12:22:12;;;;;;;12.93;3.70;;;21.80;45.20;;;;;;4948594;29;20078;-62
2022/05/15 12:24:40;;;;;;;10.07;3.45;;;21.80;45.50;;;;;;4949004;29;20061;-62
2022/05/15 12:27:18;;;;;;;10.80;3.20;;;21.80;45.50;;;;;;4947715;29;20042;-61
2022/05/15 12:30:04;;;;;;;7.40;2.97;;;21.90;44.90;;;;;;4948928;29;20095;-61
2022/05/15 12:33:07;;;;;;;10.05;3.45;;;21.90;44.70;;;;;;4946732;29;20114;-60
2022/05/15 12:35:35;;;;;;;8.60;2.95;;;21.90;44.60;;;;;;4922945;29;20043;-61
2022/05/15 12:38:13;;;;;;;9.43;3.80;;;21.90;44.60;;;;;;4950101;29;20039;-61
2022/05/15 12:41:00;;;;;;;13.30;3.55;;;21.90;44.50;;;;;;4948690;29;20051;-60
2022/05/15 12:43:34;;;;;;;10.82;3.55;;;21.90;44.70;;;;;;4948786;29;20134;-59
2022/05/15 12:46:01;;;;;;;14.50;4.00;;;21.90;44.60;;;;;;4946470;28;21488;-61
2022/05/15 12:48:31;;;;;;;14.68;3.90;;;22.00;44.70;;;;;;4948909;28;20047;-61
2022/05/15 12:51:02;;;;;;;9.63;3.83;;;22.00;44.50;;;;;;4947645;28;20091;-60
2022/05/15 12:53:31;;;;;;;12.75;3.78;;;22.00;44.40;;;;;;4947928;29;20133;-60
2022/05/15 12:56:14;;;;;;;9.77;3.22;;;22.00;44.40;;;;;;4948217;29;20040;-63
2022/05/15 12:58:41;;;;;;;8.75;3.53;;;22.10;44.60;;;;;;4948622;29;20110;-60
2022/05/15 13:01:10;;;;;;;9.23;3.28;;;22.10;44.20;;;;;;4942552;29;20454;-61
2022/05/15 13:03:36;;;;;;;12.73;3.10;;;22.10;43.90;;;;;;4946487;28;20043;-61
2022/05/15 13:06:04;;;;;;;12.88;3.53;;;22.10;43.70;;;;;;4946812;28;20075;-63
2022/05/15 13:08:48;;;;;;;9.95;3.60;;;22.10;43.80;;;;;;4947929;29;20047;-61
2022/05/15 13:11:20;;;;;;;10.10;3.40;;;22.20;43.30;;;;;;4946783;28;20039;-59
2022/05/15 13:13:47;;;;;;;10.73;3.47;;;22.20;42.90;;;;;;4946943;28;20047;-60
2022/05/15 13:16:19;;;;;;;9.55;3.30;;;22.20;43.00;;;;;;4948262;28;20126;-63
2022/05/15 13:18:47;;;;;;;12.35;3.10;;;22.30;43.00;;;;;;4948561;28;20124;-59
2022/05/15 13:21:19;;;;;;;10.07;3.65;;;22.30;43.10;;;;;;4947676;28;20132;-60
2022/05/15 13:23:47;;;;;;;10.93;3.72;;;22.40;43.00;;;;;;4947375;28;20057;-59
2022/05/15 13:26:38;;;;;;;9.68;3.08;;;22.40;42.70;;;;;;4948732;28;20122;-61
2022/05/15 13:29:05;;;;;;;9.77;3.40;;;22.40;42.70;;;;;;4947508;28;20050;-61